Sao Joao dos Patos, Brazil
Current Conditions -  °F | °C
As of 9:00 AM on Thursday 18 Dec 2014 (Local Time) from SBTE Reporting Station
Scattered Clouds Scattered Clouds  
Wind Chill: 84°   Ceiling: Unl
Heat Index: 90°   Visibility: 6mi
Dew Point: 72°   Wind: 5mph
Humidity: 66%   Direction: 70°ENE
Pressure: 29.91"   Gusts: NA
Location:  6.5°S, 43.7°W
Report Text: SBTE 181200Z 07004KT 9999 SCT017 29/22 Q1013
Loading
Personal Weather Stations






























Interactive Weather Map New forecast layout! Learn more

10-Day Weather Forecast

Advertisements
Track Severe Weather on mobile